Time;durP1;ratioP1;P1;durP2;ratioP2;P2;SDS_P1;SDS_P2;PMS_P1;PMS_P2;Temp;Humidity;BMP_temperature;BMP_pressure;BME280_temperature;BME280_humidity;BME280_pressure;Samples;Min_cycle;Max_cycle;Signal;HPM_P1;HPM_P2
2021/09/17 00:02:17;;;;;;;10.00;7.05;;;17.50;99.90;;;;;;2629681;54;20031;-78
2021/09/17 00:04:45;;;;;;;7.55;6.78;;;17.40;99.90;;;;;;2629491;54;20026;-77
2021/09/17 00:07:15;;;;;;;9.13;7.43;;;17.40;99.90;;;;;;2629654;54;20031;-78
2021/09/17 00:09:44;;;;;;;10.30;6.63;;;17.40;99.90;;;;;;2629897;47;20022;-77
2021/09/17 00:12:12;;;;;;;8.98;7.13;;;17.40;99.90;;;;;;2630243;47;20031;-78
2021/09/17 00:14:41;;;;;;;7.57;6.88;;;17.30;99.90;;;;;;2629870;54;20035;-77
2021/09/17 00:17:09;;;;;;;7.85;6.53;;;17.30;99.90;;;;;;2630486;47;20053;-77
2021/09/17 00:19:37;;;;;;;7.25;5.07;;;17.30;99.90;;;;;;2629253;46;20034;-76
2021/09/17 00:22:06;;;;;;;7.05;5.50;;;17.20;99.90;;;;;;2628834;54;20065;-77
2021/09/17 00:24:34;;;;;;;7.47;5.20;;;17.10;99.90;;;;;;2630113;47;20030;-79
2021/09/17 00:27:03;;;;;;;6.03;4.82;;;17.10;99.90;;;;;;2630122;54;20034;-79
2021/09/17 00:29:31;;;;;;;6.22;4.20;;;17.00;99.90;;;;;;2630193;54;20022;-78
2021/09/17 00:31:59;;;;;;;4.75;4.05;;;17.00;99.90;;;;;;2630378;54;20034;-77
2021/09/17 00:34:29;;;;;;;4.93;4.30;;;16.90;99.90;;;;;;2630243;54;20022;-77
2021/09/17 00:36:57;;;;;;;4.90;4.40;;;16.90;99.90;;;;;;2629907;47;20103;-77
2021/09/17 00:39:27;;;;;;;4.70;4.30;;;16.90;99.90;;;;;;2630735;39;20445;-77
2021/09/17 00:41:57;;;;;;;4.97;4.10;;;16.80;99.90;;;;;;2629960;54;20027;-77
2021/09/17 00:44:26;;;;;;;4.60;4.20;;;16.80;99.90;;;;;;2629534;54;20094;-76
2021/09/17 00:46:55;;;;;;;6.93;4.47;;;16.80;99.90;;;;;;2629516;54;20026;-79
2021/09/17 00:49:26;;;;;;;5.45;4.00;;;16.80;99.90;;;;;;2629824;47;20087;-77
2021/09/17 00:51:57;;;;;;;4.10;3.67;;;16.70;99.90;;;;;;2629272;54;20030;-78
2021/09/17 00:54:25;;;;;;;4.72;4.10;;;16.70;99.90;;;;;;2629507;54;20154;-78
2021/09/17 00:56:53;;;;;;;7.85;4.80;;;16.70;99.90;;;;;;2629662;54;20021;-78
2021/09/17 00:59:21;;;;;;;5.35;4.13;;;16.70;99.90;;;;;;2629547;47;20039;-78
2021/09/17 01:01:49;;;;;;;5.28;4.22;;;16.70;99.90;;;;;;2629516;54;20078;-78
2021/09/17 01:04:18;;;;;;;7.47;4.35;;;16.60;99.90;;;;;;2630024;47;20043;-78
2021/09/17 01:06:46;;;;;;;4.65;4.00;;;16.60;99.90;;;;;;2629633;54;20096;-78
2021/09/17 01:09:14;;;;;;;5.85;4.38;;;16.60;99.90;;;;;;2630177;39;20410;-77
2021/09/17 01:11:42;;;;;;;6.65;4.32;;;16.50;99.90;;;;;;2628768;54;20027;-77
2021/09/17 01:14:11;;;;;;;4.97;4.47;;;16.50;99.90;;;;;;2628478;54;20123;-78
2021/09/17 01:16:39;;;;;;;5.25;4.28;;;16.50;99.90;;;;;;2629102;54;20010;-77
2021/09/17 01:19:10;;;;;;;7.15;4.03;;;16.50;99.90;;;;;;2629176;54;20030;-76
2021/09/17 01:21:39;;;;;;;5.05;4.22;;;16.50;99.90;;;;;;2628886;54;20022;-76
2021/09/17 01:24:07;;;;;;;7.70;4.40;;;16.40;99.90;;;;;;2629324;54;20033;-77
2021/09/17 01:26:37;;;;;;;6.18;3.92;;;16.40;99.90;;;;;;2629428;47;20026;-76
2021/09/17 01:29:06;;;;;;;6.63;4.88;;;16.40;99.90;;;;;;2628999;54;20031;-77
2021/09/17 01:31:34;;;;;;;8.07;4.57;;;16.40;99.90;;;;;;2629776;54;20038;-78
2021/09/17 01:34:07;;;;;;;5.90;4.75;;;16.30;99.90;;;;;;2629376;54;20033;-78
2021/09/17 01:36:35;;;;;;;6.57;5.15;;;16.30;99.90;;;;;;2632459;46;20382;-77
2021/09/17 01:39:03;;;;;;;7.85;5.35;;;16.30;99.90;;;;;;2629008;47;20023;-77
2021/09/17 01:41:30;;;;;;;5.25;4.45;;;16.30;99.90;;;;;;2628907;54;20018;-79
2021/09/17 01:43:59;;;;;;;10.68;5.28;;;16.30;99.90;;;;;;2628364;54;20035;-77
2021/09/17 01:46:27;;;;;;;7.05;4.97;;;16.30;99.90;;;;;;2629162;54;20038;-76
2021/09/17 01:48:55;;;;;;;8.65;5.65;;;16.20;99.90;;;;;;2628529;47;20134;-77
2021/09/17 01:51:23;;;;;;;12.48;6.70;;;16.20;99.90;;;;;;2629447;47;20022;-77
2021/09/17 01:53:52;;;;;;;8.30;6.13;;;16.10;99.90;;;;;;2629759;54;20087;-77
2021/09/17 01:56:23;;;;;;;7.72;6.05;;;16.10;99.90;;;;;;2629605;54;20035;-77
2021/09/17 01:58:51;;;;;;;6.78;5.65;;;16.10;99.90;;;;;;2629914;54;20031;-78
2021/09/17 02:01:20;;;;;;;7.47;6.63;;;16.10;99.90;;;;;;2629101;54;20090;-77
2021/09/17 02:03:48;;;;;;;9.02;6.28;;;16.10;99.90;;;;;;2630008;54;20014;-78
2021/09/17 02:06:20;;;;;;;7.05;6.25;;;16.00;99.90;;;;;;2629700;54;20090;-77
2021/09/17 02:08:48;;;;;;;7.40;6.28;;;16.00;99.90;;;;;;2629733;54;20043;-77
2021/09/17 02:11:17;;;;;;;7.22;6.53;;;15.90;99.90;;;;;;2629495;47;20082;-78
2021/09/17 02:13:44;;;;;;;9.38;7.40;;;15.90;99.90;;;;;;2629491;54;20041;-77
2021/09/17 02:16:12;;;;;;;10.48;7.35;;;15.90;99.90;;;;;;2629629;54;20023;-75
2021/09/17 02:18:41;;;;;;;10.27;8.10;;;15.80;99.90;;;;;;2640497;39;20416;-76
2021/09/17 02:21:09;;;;;;;8.80;7.90;;;15.80;99.90;;;;;;2629637;54;20021;-77
2021/09/17 02:23:37;;;;;;;9.45;8.57;;;15.70;99.90;;;;;;2629299;54;20106;-79
2021/09/17 02:26:06;;;;;;;11.40;8.68;;;15.60;99.90;;;;;;2628970;47;20561;-78
2021/09/17 02:28:37;;;;;;;11.85;8.35;;;15.60;99.90;;;;;;2628986;47;20026;-77
2021/09/17 02:31:06;;;;;;;11.00;8.80;;;15.60;99.90;;;;;;2631317;39;20702;-76
2021/09/17 02:33:34;;;;;;;9.75;8.07;;;15.60;99.90;;;;;;2629537;47;20031;-77
2021/09/17 02:36:03;;;;;;;13.77;10.02;;;15.40;99.90;;;;;;2629301;54;20029;-78
2021/09/17 02:38:31;;;;;;;10.73;9.27;;;15.40;99.90;;;;;;2629525;47;20026;-77
2021/09/17 02:40:59;;;;;;;10.57;9.48;;;15.40;99.90;;;;;;2629755;54;20037;-78
2021/09/17 02:43:27;;;;;;;10.18;9.20;;;15.40;99.90;;;;;;2629607;47;20033;-78
2021/09/17 02:45:56;;;;;;;12.00;10.00;;;15.40;99.90;;;;;;2629634;47;20022;-76
2021/09/17 02:48:23;;;;;;;13.27;10.35;;;15.30;99.90;;;;;;2629979;54;20037;-76
2021/09/17 02:50:51;;;;;;;11.15;10.05;;;15.30;99.90;;;;;;2629561;54;20030;-78
2021/09/17 02:53:19;;;;;;;11.93;10.65;;;15.30;99.90;;;;;;2629730;54;20036;-77
2021/09/17 02:55:46;;;;;;;12.30;10.43;;;15.30;99.90;;;;;;2629952;47;20022;-77
2021/09/17 02:58:14;;;;;;;10.90;9.23;;;15.30;99.90;;;;;;2630637;47;20574;-77
2021/09/17 03:00:42;;;;;;;12.00;10.00;;;15.30;99.90;;;;;;2630205;47;20033;-77
2021/09/17 03:03:11;;;;;;;11.88;10.45;;;15.30;99.90;;;;;;2630052;47;20030;-76
2021/09/17 03:05:39;;;;;;;12.32;10.82;;;15.30;99.90;;;;;;2630023;47;20027;-78
2021/09/17 03:08:07;;;;;;;12.57;10.43;;;15.30;99.90;;;;;;2630335;54;20026;-77
2021/09/17 03:10:35;;;;;;;11.43;9.82;;;15.20;99.90;;;;;;2629970;54;20034;-77
2021/09/17 03:13:03;;;;;;;11.73;9.65;;;15.30;99.90;;;;;;2630186;54;20030;-80
2021/09/17 03:15:32;;;;;;;13.00;10.50;;;15.20;99.90;;;;;;2632239;39;20417;-77
2021/09/17 03:18:00;;;;;;;14.25;10.93;;;15.20;99.90;;;;;;2630165;47;20027;-77
2021/09/17 03:20:28;;;;;;;10.10;9.10;;;15.20;99.90;;;;;;2630071;54;20561;-81
2021/09/17 03:23:00;;;;;;;12.15;10.05;;;15.20;99.90;;;;;;2629131;47;20039;-77
2021/09/17 03:25:29;;;;;;;13.27;11.30;;;15.20;99.90;;;;;;2630203;54;20019;-76
2021/09/17 03:27:57;;;;;;;10.60;9.57;;;15.20;99.90;;;;;;2629716;54;20030;-77
2021/09/17 03:30:24;;;;;;;13.88;9.68;;;15.20;99.90;;;;;;2630074;47;20014;-76
2021/09/17 03:32:53;;;;;;;12.95;10.40;;;15.20;99.90;;;;;;2630133;54;20033;-77
2021/09/17 03:35:22;;;;;;;11.57;10.48;;;15.20;99.90;;;;;;2630519;54;20056;-78
2021/09/17 03:37:49;;;;;;;14.18;11.07;;;15.20;99.90;;;;;;2630495;54;20030;-78
2021/09/17 03:40:18;;;;;;;11.93;10.57;;;15.20;99.90;;;;;;2630298;54;20567;-80
2021/09/17 03:42:46;;;;;;;14.25;12.00;;;15.20;99.90;;;;;;2629794;47;20066;-77
2021/09/17 03:45:14;;;;;;;13.75;10.50;;;15.20;99.90;;;;;;2629958;46;20015;-77
2021/09/17 03:47:41;;;;;;;13.63;11.05;;;15.20;99.90;;;;;;2629745;54;20055;-78
2021/09/17 03:50:10;;;;;;;13.20;11.35;;;15.20;99.90;;;;;;2630181;54;20030;-77
2021/09/17 03:52:38;;;;;;;14.65;10.70;;;15.20;99.90;;;;;;2629969;54;20026;-78
2021/09/17 03:55:07;;;;;;;13.02;11.73;;;15.20;99.90;;;;;;2629692;47;20011;-78
2021/09/17 03:57:36;;;;;;;12.77;10.30;;;15.20;99.90;;;;;;2630349;47;20030;-77
2021/09/17 04:00:04;;;;;;;12.82;9.77;;;15.10;99.90;;;;;;2629925;54;20014;-77
2021/09/17 04:02:39;;;;;;;11.35;10.15;;;15.20;99.90;;;;;;2630589;47;20022;-76
2021/09/17 04:05:09;;;;;;;11.68;10.48;;;15.20;99.90;;;;;;2630368;54;20568;-78
2021/09/17 04:07:41;;;;;;;9.10;8.15;;;15.20;99.90;;;;;;2630477;46;20034;-77
2021/09/17 04:10:15;;;;;;;10.32;9.20;;;15.10;99.90;;;;;;2631027;47;20048;-77
2021/09/17 04:12:43;;;;;;;11.13;10.00;;;15.10;99.90;;;;;;2630491;47;20015;-79
2021/09/17 04:15:12;;;;;;;12.50;11.13;;;15.10;99.90;;;;;;2631014;54;20015;-78
2021/09/17 04:17:41;;;;;;;12.93;9.80;;;15.10;99.90;;;;;;2621847;54;20121;31
2021/09/17 04:20:10;;;;;;;11.38;9.68;;;15.10;99.90;;;;;;2630992;54;19986;-77
2021/09/17 04:22:38;;;;;;;11.15;9.48;;;15.10;99.90;;;;;;2630951;54;20070;-78
2021/09/17 04:25:07;;;;;;;12.70;10.23;;;15.00;99.90;;;;;;2619777;54;20070;31
2021/09/17 04:27:36;;;;;;;14.35;10.35;;;15.00;99.90;;;;;;2631005;47;20050;-77
2021/09/17 04:30:08;;;;;;;14.98;10.45;;;15.00;99.90;;;;;;2638318;31;20564;31
2021/09/17 04:32:37;;;;;;;14.40;9.75;;;15.00;99.90;;;;;;2617583;54;20030;31
2021/09/17 04:35:08;;;;;;;14.93;10.68;;;15.00;99.90;;;;;;2618089;54;20041;31
2021/09/17 04:37:40;;;;;;;12.38;9.45;;;15.00;99.90;;;;;;2627834;46;20062;-79
2021/09/17 04:40:09;;;;;;;12.52;9.80;;;15.00;99.90;;;;;;2631014;54;20038;-79
2021/09/17 04:42:38;;;;;;;16.15;10.38;;;15.00;99.90;;;;;;2630789;47;20019;-78
2021/09/17 04:45:07;;;;;;;12.65;9.23;;;15.00;99.90;;;;;;2630770;54;20034;-79
2021/09/17 04:47:36;;;;;;;11.32;9.57;;;15.00;99.90;;;;;;2630986;54;20026;-77
2021/09/17 04:50:04;;;;;;;12.18;9.13;;;15.00;99.90;;;;;;2630789;47;20007;-77
2021/09/17 04:52:47;;;;;;;11.52;9.88;;;15.00;99.90;;;;;;2630797;47;20026;-77
2021/09/17 04:55:18;;;;;;;15.27;10.27;;;15.00;99.90;;;;;;2630872;54;20018;-77
2021/09/17 04:57:47;;;;;;;11.63;9.73;;;15.00;99.90;;;;;;2630492;47;20031;-77
2021/09/17 05:00:17;;;;;;;13.23;9.35;;;15.00;99.90;;;;;;2630344;54;20015;-77
2021/09/17 05:02:45;;;;;;;11.23;9.45;;;15.00;99.90;;;;;;2630134;54;20158;-77
2021/09/17 05:05:16;;;;;;;14.25;9.00;;;15.00;99.90;;;;;;2630188;39;20398;-76
2021/09/17 05:07:45;;;;;;;10.43;8.52;;;15.10;99.90;;;;;;2621446;54;20021;31
2021/09/17 05:10:20;;;;;;;10.37;8.97;;;15.00;99.90;;;;;;2609144;54;20054;-78
2021/09/17 05:12:48;;;;;;;9.48;8.02;;;15.10;99.90;;;;;;2629848;54;20034;-77
2021/09/17 05:15:16;;;;;;;9.18;8.18;;;15.10;99.90;;;;;;2628704;47;20026;-76
2021/09/17 05:17:44;;;;;;;11.07;8.05;;;15.20;99.90;;;;;;2628423;47;20038;-79
2021/09/17 05:20:13;;;;;;;11.30;7.50;;;15.20;99.90;;;;;;2628470;54;20031;-78
2021/09/17 05:22:41;;;;;;;12.48;7.50;;;15.20;99.90;;;;;;2629184;54;20082;-78
2021/09/17 05:25:09;;;;;;;12.73;7.75;;;15.30;99.90;;;;;;2629541;54;20057;-79
2021/09/17 05:27:37;;;;;;;11.30;7.55;;;15.30;99.90;;;;;;2630466;54;20042;-78
2021/09/17 05:30:06;;;;;;;11.07;6.95;;;15.30;99.90;;;;;;2628781;54;20026;-80
2021/09/17 05:32:34;;;;;;;12.15;7.65;;;15.40;99.90;;;;;;2628775;54;20054;-78
2021/09/17 05:35:04;;;;;;;12.95;7.88;;;15.40;99.90;;;;;;2629304;54;20141;-77
2021/09/17 05:37:31;;;;;;;14.80;7.97;;;15.40;99.90;;;;;;2629368;47;20057;-78
2021/09/17 05:40:00;;;;;;;8.73;7.13;;;15.50;99.90;;;;;;2629283;54;20018;-77
2021/09/17 05:42:27;;;;;;;12.95;7.70;;;15.50;99.90;;;;;;2630001;54;20026;-76
2021/09/17 05:44:55;;;;;;;15.82;7.75;;;15.50;99.90;;;;;;2629447;54;20026;-77
2021/09/17 05:47:22;;;;;;;16.55;7.35;;;15.50;99.90;;;;;;2630188;54;20034;-77
2021/09/17 05:49:51;;;;;;;7.85;6.75;;;15.50;99.90;;;;;;2635059;39;20441;-76
2021/09/17 05:52:19;;;;;;;11.82;7.38;;;15.70;99.90;;;;;;2629285;47;20030;-77
2021/09/17 05:54:46;;;;;;;10.73;7.32;;;15.60;99.90;;;;;;2629920;47;20027;-79
2021/09/17 05:57:14;;;;;;;9.30;6.95;;;15.70;99.90;;;;;;2629244;47;20061;-78
2021/09/17 05:59:42;;;;;;;12.73;8.13;;;15.70;99.90;;;;;;2629235;54;20026;-77
2021/09/17 06:02:10;;;;;;;15.10;7.05;;;15.60;99.90;;;;;;2629423;54;20565;-77
2021/09/17 06:04:38;;;;;;;9.63;7.50;;;15.70;99.90;;;;;;2629053;54;20026;-78
2021/09/17 06:07:06;;;;;;;9.50;7.35;;;15.70;99.90;;;;;;2629034;47;20541;-77
2021/09/17 06:09:36;;;;;;;21.58;8.20;;;15.80;99.90;;;;;;2629229;54;20039;-76
2021/09/17 06:12:04;;;;;;;12.98;7.47;;;15.80;99.90;;;;;;2628180;54;20010;-76
2021/09/17 06:14:33;;;;;;;14.13;7.03;;;15.80;99.90;;;;;;2628908;54;20018;-76
2021/09/17 06:17:00;;;;;;;13.20;7.32;;;15.80;99.90;;;;;;2629087;47;20026;-79
2021/09/17 06:19:30;;;;;;;8.95;7.20;;;15.80;99.90;;;;;;2628857;47;20078;-78
2021/09/17 06:21:58;;;;;;;10.07;7.43;;;15.90;99.90;;;;;;2628921;54;20034;-76
2021/09/17 06:24:25;;;;;;;11.27;7.38;;;15.90;99.90;;;;;;2628798;54;20034;-79
2021/09/17 06:26:53;;;;;;;10.30;7.78;;;15.90;99.90;;;;;;2630775;39;20454;-78
2021/09/17 06:29:22;;;;;;;9.98;6.80;;;15.90;99.90;;;;;;2629386;47;20090;-78
2021/09/17 06:31:50;;;;;;;10.40;7.45;;;16.00;99.90;;;;;;2629426;47;20667;-78
2021/09/17 06:34:18;;;;;;;9.80;7.22;;;16.00;99.90;;;;;;2629791;47;20051;-78
2021/09/17 06:36:46;;;;;;;23.70;8.30;;;16.00;99.90;;;;;;2629645;47;20030;-78
2021/09/17 06:39:13;;;;;;;9.55;7.32;;;16.10;99.90;;;;;;2629490;47;20090;-78
2021/09/17 06:41:40;;;;;;;10.88;7.85;;;16.10;99.90;;;;;;2629633;47;20027;-77
2021/09/17 06:44:07;;;;;;;12.07;8.05;;;16.10;99.90;;;;;;2629280;54;20023;-77
2021/09/17 06:46:36;;;;;;;13.20;8.07;;;16.10;99.90;;;;;;2629392;47;20034;-77
2021/09/17 06:49:03;;;;;;;11.68;8.25;;;16.10;99.90;;;;;;2629275;47;20058;-76
2021/09/17 06:51:31;;;;;;;29.70;8.05;;;16.20;99.90;;;;;;2628897;54;20727;-77
2021/09/17 06:54:00;;;;;;;14.13;8.35;;;16.20;99.90;;;;;;2629001;54;20102;-77
2021/09/17 06:56:27;;;;;;;9.60;8.10;;;16.20;99.90;;;;;;2629186;54;20035;-78
2021/09/17 06:58:55;;;;;;;8.77;7.88;;;16.20;99.90;;;;;;2628738;47;20030;-78
2021/09/17 07:01:25;;;;;;;10.25;8.23;;;16.30;99.90;;;;;;2628700;54;20027;-82
2021/09/17 07:03:53;;;;;;;10.32;7.75;;;16.30;99.90;;;;;;2628507;54;20025;-76
2021/09/17 07:06:22;;;;;;;10.57;8.02;;;16.30;99.90;;;;;;2628532;54;20086;-78
2021/09/17 07:08:53;;;;;;;10.77;8.27;;;16.30;99.90;;;;;;2628468;54;20027;-77
2021/09/17 07:17:16;;;;;;;11.93;8.30;;;16.30;99.90;;;;;;2626520;54;20031;-77
2021/09/17 07:19:45;;;;;;;11.70;8.73;;;16.40;99.90;;;;;;2628713;54;20037;-77
2021/09/17 07:22:14;;;;;;;12.00;8.93;;;16.40;99.90;;;;;;2629781;54;20023;-77
2021/09/17 07:24:43;;;;;;;12.77;8.40;;;16.40;99.90;;;;;;2627398;54;20078;-78
2021/09/17 07:27:11;;;;;;;15.50;8.48;;;16.50;99.90;;;;;;2631312;54;20022;-78
2021/09/17 07:29:42;;;;;;;12.40;8.98;;;16.50;99.90;;;;;;2626356;54;20054;31
2021/09/17 07:32:11;;;;;;;14.93;9.30;;;16.60;99.90;;;;;;2613998;54;20396;31
2021/09/17 07:34:42;;;;;;;9.77;8.15;;;16.60;99.90;;;;;;2628244;39;20442;31
2021/09/17 07:37:13;;;;;;;16.38;9.20;;;16.60;99.90;;;;;;2619241;46;20026;31
2021/09/17 07:39:44;;;;;;;9.73;8.60;;;16.70;99.90;;;;;;2606404;54;20019;31
2021/09/17 07:42:13;;;;;;;9.80;8.68;;;16.70;99.90;;;;;;2608267;54;21171;31
2021/09/17 07:44:42;;;;;;;15.25;8.80;;;16.70;99.90;;;;;;2607603;47;20046;31
2021/09/17 07:47:10;;;;;;;9.55;6.47;;;16.70;99.90;;;;;;2608993;54;20042;31
2021/09/17 07:49:39;;;;;;;10.25;7.70;;;16.80;99.90;;;;;;2614465;47;20019;31
2021/09/17 07:52:10;;;;;;;12.50;8.30;;;16.80;99.90;;;;;;2618777;39;21032;31
2021/09/17 07:54:41;;;;;;;7.00;6.30;;;16.80;99.90;;;;;;2611373;47;20034;31
2021/09/17 07:57:12;;;;;;;9.77;6.53;;;16.90;99.90;;;;;;2592069;54;20014;31
2021/09/17 07:59:40;;;;;;;15.10;6.53;;;16.90;99.90;;;;;;2597646;47;20028;31
2021/09/17 08:02:08;;;;;;;9.13;6.25;;;17.00;99.90;;;;;;2618802;54;20836;31
2021/09/17 08:04:39;;;;;;;8.77;5.63;;;17.10;99.90;;;;;;2609247;47;20914;31
